createdAt,value
2019-05-25T00:02:23.992Z,18.60
2019-05-25T00:04:53.396Z,18.50
2019-05-25T00:07:22.200Z,18.50
2019-05-25T00:09:51.172Z,18.50
2019-05-25T00:12:20.052Z,18.40
2019-05-25T00:14:49.085Z,18.40
2019-05-25T00:17:18.291Z,18.40
2019-05-25T00:19:47.543Z,18.30
2019-05-25T00:22:16.378Z,18.30
2019-05-25T00:24:45.471Z,18.20
2019-05-25T00:27:14.428Z,18.10
2019-05-25T00:29:43.310Z,17.80
2019-05-25T00:32:12.457Z,17.70
2019-05-25T00:34:41.310Z,17.70
2019-05-25T00:37:10.465Z,17.70
2019-05-25T00:39:39.343Z,17.70
2019-05-25T00:42:08.850Z,17.80
2019-05-25T00:44:37.707Z,17.80
2019-05-25T00:47:07.029Z,17.80
2019-05-25T00:49:35.918Z,17.90
2019-05-25T00:52:04.913Z,17.80
2019-05-25T00:54:33.853Z,17.80
2019-05-25T00:57:02.744Z,17.80
2019-05-25T00:59:31.613Z,17.80
2019-05-25T01:02:00.623Z,17.80
2019-05-25T01:04:29.440Z,17.80
2019-05-25T01:06:58.325Z,17.70
2019-05-25T01:09:27.119Z,17.60
2019-05-25T01:11:56.267Z,17.60
2019-05-25T01:14:25.485Z,17.50
2019-05-25T01:16:54.429Z,17.50
2019-05-25T01:19:23.292Z,17.40
2019-05-25T01:21:52.083Z,17.40
2019-05-25T01:24:21.535Z,17.30
2019-05-25T01:26:50.635Z,17.20
2019-05-25T01:29:19.600Z,17.10
2019-05-25T01:31:49.003Z,17.10
2019-05-25T01:34:18.531Z,17.00
2019-05-25T01:36:47.413Z,17.00
2019-05-25T01:39:16.551Z,17.00
2019-05-25T01:41:45.350Z,17.00
2019-05-25T01:44:14.241Z,17.00
2019-05-25T01:46:43.268Z,17.00
2019-05-25T01:49:12.215Z,17.00
2019-05-25T01:51:41.028Z,17.00
2019-05-25T01:54:09.892Z,17.00
2019-05-25T01:56:38.715Z,17.00
2019-05-25T01:59:07.855Z,17.00
2019-05-25T02:01:36.713Z,17.00
2019-05-25T02:04:05.644Z,17.00
2019-05-25T02:06:34.859Z,17.10
2019-05-25T02:09:05.684Z,17.00
2019-05-25T02:11:34.475Z,17.10
2019-05-25T02:14:03.388Z,17.10
2019-05-25T02:16:32.557Z,17.10
2019-05-25T02:19:01.421Z,17.10
2019-05-25T02:21:30.663Z,17.10
2019-05-25T02:23:59.940Z,17.00
2019-05-25T02:26:28.789Z,17.00
2019-05-25T02:28:57.998Z,17.00
2019-05-25T02:31:26.936Z,16.90
2019-05-25T02:33:56.109Z,16.90
2019-05-25T02:36:25.478Z,16.90
2019-05-25T02:38:55.167Z,16.80
2019-05-25T02:41:24.145Z,16.80
2019-05-25T02:43:52.944Z,16.80
2019-05-25T02:46:21.816Z,16.80
2019-05-25T02:48:50.709Z,16.70
2019-05-25T02:51:19.716Z,16.70
2019-05-25T02:53:49.550Z,16.60
2019-05-25T02:56:18.486Z,16.60
2019-05-25T02:58:47.548Z,16.50
2019-05-25T03:01:16.551Z,16.50
2019-05-25T03:03:45.552Z,16.40
2019-05-25T03:06:14.979Z,16.40
2019-05-25T03:08:45.391Z,16.30
2019-05-25T03:11:14.263Z,16.30
2019-05-25T03:13:43.972Z,16.20
2019-05-25T03:16:13.306Z,16.20
2019-05-25T03:18:42.228Z,16.10
2019-05-25T03:21:11.638Z,16.10
2019-05-25T03:23:40.445Z,16.00
2019-05-25T03:26:09.473Z,16.00
2019-05-25T03:28:38.356Z,15.90
2019-05-25T03:31:07.201Z,15.90
2019-05-25T03:33:36.303Z,15.90
2019-05-25T03:36:05.202Z,15.80
2019-05-25T03:38:34.472Z,15.80
2019-05-25T03:41:03.431Z,15.80
2019-05-25T03:43:32.404Z,15.80
2019-05-25T03:46:01.375Z,15.80
2019-05-25T03:48:30.698Z,15.70
2019-05-25T03:50:59.577Z,15.70
2019-05-25T03:53:28.590Z,15.70
2019-05-25T03:56:05.707Z,15.70
2019-05-25T03:58:28.107Z,15.70
2019-05-25T04:00:57.362Z,15.70
2019-05-25T04:03:26.169Z,15.60
2019-05-25T04:05:55.423Z,15.60
2019-05-25T04:08:24.300Z,15.60
2019-05-25T04:10:53.296Z,15.60
2019-05-25T04:13:22.257Z,15.60
2019-05-25T04:15:51.055Z,15.60
2019-05-25T04:18:19.932Z,15.60
2019-05-25T04:20:48.821Z,15.60
2019-05-25T04:23:17.633Z,15.70
2019-05-25T04:25:46.638Z,15.70
2019-05-25T04:28:15.460Z,15.70
2019-05-25T04:30:44.592Z,15.60
2019-05-25T04:33:13.445Z,15.60
2019-05-25T04:35:42.815Z,15.60
2019-05-25T04:38:12.312Z,15.60
2019-05-25T04:40:41.183Z,15.60
2019-05-25T04:43:10.454Z,15.60
2019-05-25T04:45:39.668Z,15.60
2019-05-25T04:48:08.566Z,15.70
2019-05-25T04:50:37.411Z,15.70
2019-05-25T04:53:06.322Z,15.70
2019-05-25T04:55:35.259Z,15.70
2019-05-25T04:58:04.190Z,15.80
2019-05-25T05:00:33.429Z,15.80
2019-05-25T05:03:02.335Z,15.80
2019-05-25T05:05:31.523Z,15.80
2019-05-25T05:08:00.390Z,15.80
2019-05-25T05:10:29.255Z,15.80
2019-05-25T05:12:58.305Z,15.80
2019-05-25T05:15:27.129Z,15.80
2019-05-25T05:17:56.273Z,15.80
2019-05-25T05:20:25.309Z,15.80
2019-05-25T05:22:54.411Z,15.80
2019-05-25T05:25:23.488Z,15.80
2019-05-25T05:27:52.651Z,15.80
2019-05-25T05:30:32.112Z,15.70
2019-05-25T05:33:01.703Z,15.70
2019-05-25T05:38:04.482Z,15.70
2019-05-25T05:40:35.484Z,15.80
2019-05-25T05:43:09.927Z,15.80
2019-05-25T05:45:41.034Z,15.80
2019-05-25T05:48:12.147Z,15.80
2019-05-25T05:50:41.466Z,15.80
2019-05-25T05:53:10.845Z,15.90
2019-05-25T05:55:39.750Z,15.90
2019-05-25T05:58:08.565Z,15.90
2019-05-25T06:00:37.544Z,15.90
2019-05-25T06:03:06.415Z,15.90
2019-05-25T06:05:35.199Z,15.90
2019-05-25T06:08:04.264Z,15.90
2019-05-25T06:10:33.274Z,15.90
2019-05-25T06:13:02.153Z,16.00
2019-05-25T06:15:31.231Z,16.00
2019-05-25T06:18:00.353Z,16.00
2019-05-25T06:20:29.340Z,16.10
2019-05-25T06:22:58.482Z,16.10
2019-05-25T06:25:27.524Z,16.10
2019-05-25T06:27:56.499Z,16.20
2019-05-25T06:30:26.004Z,16.20
2019-05-25T06:32:57.258Z,16.40
2019-05-25T06:35:26.229Z,16.40
2019-05-25T06:37:55.617Z,16.40
2019-05-25T06:40:24.552Z,16.40
2019-05-25T06:42:53.671Z,16.50
2019-05-25T06:45:22.779Z,16.50
2019-05-25T06:47:51.786Z,16.60
2019-05-25T06:50:20.884Z,16.60
2019-05-25T06:52:49.784Z,16.70
2019-05-25T06:55:18.816Z,16.70
2019-05-25T06:57:47.753Z,16.80
2019-05-25T07:00:17.544Z,16.70
2019-05-25T07:02:46.504Z,16.80
2019-05-25T07:05:15.596Z,16.80
2019-05-25T07:10:13.851Z,16.70
2019-05-25T07:12:42.986Z,16.80
2019-05-25T07:15:12.203Z,16.90
2019-05-25T07:17:41.428Z,16.90
2019-05-25T07:20:11.456Z,16.90
2019-05-25T07:22:40.361Z,16.90
2019-05-25T07:25:11.022Z,16.90
2019-05-25T07:27:39.851Z,16.90
2019-05-25T07:30:10.083Z,17.00
2019-05-25T07:32:39.105Z,17.10
2019-05-25T07:35:08.558Z,17.20
2019-05-25T07:37:38.199Z,17.10
2019-05-25T07:40:07.911Z,17.20
2019-05-25T07:42:37.022Z,17.20
2019-05-25T07:45:07.171Z,17.20
2019-05-25T07:47:36.568Z,17.20
2019-05-25T07:50:06.549Z,17.30
2019-05-25T07:52:35.760Z,17.50
2019-05-25T07:55:05.746Z,17.50
2019-05-25T07:57:34.921Z,17.60
2019-05-25T08:00:04.352Z,17.60
2019-05-25T08:02:33.403Z,17.60
2019-05-25T08:05:02.658Z,17.60
2019-05-25T08:07:31.752Z,17.60
2019-05-25T08:10:00.624Z,17.60
2019-05-25T08:12:30.164Z,17.60
2019-05-25T08:14:59.271Z,17.60
2019-05-25T08:17:28.513Z,17.70
2019-05-25T08:19:57.809Z,17.70
2019-05-25T08:22:27.015Z,17.80
2019-05-25T08:24:56.132Z,17.80
2019-05-25T08:27:25.186Z,17.80
2019-05-25T08:29:54.052Z,17.90
2019-05-25T08:32:23.197Z,18.00
2019-05-25T08:34:52.458Z,17.90
2019-05-25T08:37:21.388Z,18.00
2019-05-25T08:39:50.758Z,18.00
2019-05-25T08:42:19.608Z,18.00
2019-05-25T08:44:48.748Z,18.00
2019-05-25T08:47:17.919Z,18.10
2019-05-25T08:49:46.827Z,18.10
2019-05-25T08:52:15.765Z,18.10
2019-05-25T08:54:44.663Z,18.20
2019-05-25T08:57:17.781Z,18.30
2019-05-25T08:59:44.256Z,18.30
2019-05-25T09:02:13.983Z,18.30
2019-05-25T09:04:43.163Z,18.30
2019-05-25T09:07:12.000Z,18.50
2019-05-25T09:09:41.454Z,18.50
2019-05-25T09:12:10.592Z,18.50
2019-05-25T09:14:39.456Z,18.60
2019-05-25T09:17:08.682Z,18.60
2019-05-25T09:19:38.246Z,18.80
2019-05-25T09:22:07.356Z,18.80
2019-05-25T09:24:36.725Z,18.80
2019-05-25T09:27:05.671Z,18.90
2019-05-25T09:29:35.507Z,19.00
2019-05-25T09:32:06.972Z,18.90
2019-05-25T09:34:35.337Z,19.00
2019-05-25T09:37:04.317Z,19.00
2019-05-25T09:39:33.544Z,19.00
2019-05-25T09:42:02.981Z,19.10
2019-05-25T09:44:31.871Z,19.20
2019-05-25T09:47:00.774Z,19.20
2019-05-25T09:49:29.980Z,19.30
2019-05-25T09:51:59.038Z,19.30
2019-05-25T09:54:27.978Z,19.40
2019-05-25T09:56:56.906Z,19.40
2019-05-25T09:59:26.128Z,19.40
2019-05-25T10:01:54.928Z,19.40
2019-05-25T10:04:23.807Z,19.50
2019-05-25T10:06:52.793Z,19.50
2019-05-25T10:09:21.763Z,19.60
2019-05-25T10:11:50.712Z,19.70
2019-05-25T10:14:19.812Z,19.70
2019-05-25T10:16:48.669Z,19.70
2019-05-25T10:19:17.561Z,19.80
2019-05-25T10:21:47.088Z,19.80
2019-05-25T10:24:16.673Z,19.80
2019-05-25T10:26:45.632Z,19.80
2019-05-25T10:29:14.507Z,19.80
2019-05-25T10:31:43.400Z,19.80
2019-05-25T10:34:12.396Z,19.90
2019-05-25T10:36:41.465Z,19.90
2019-05-25T10:39:10.346Z,20.00
2019-05-25T10:41:39.172Z,20.10
2019-05-25T10:44:08.114Z,20.10
2019-05-25T10:46:37.041Z,20.10
2019-05-25T10:49:06.193Z,20.30
2019-05-25T10:51:35.230Z,20.30
2019-05-25T10:54:04.287Z,20.30
2019-05-25T10:56:33.289Z,20.40
2019-05-25T10:59:02.493Z,20.50
2019-05-25T11:01:31.379Z,20.60
2019-05-25T11:04:00.266Z,20.60
2019-05-25T11:06:29.077Z,20.50
2019-05-25T11:08:57.940Z,20.40
2019-05-25T11:11:27.210Z,20.50
2019-05-25T11:13:56.538Z,20.70
2019-05-25T11:16:25.539Z,20.80
2019-05-25T11:18:56.595Z,20.80
2019-05-25T11:21:25.612Z,20.60
2019-05-25T11:23:54.572Z,20.70
2019-05-25T11:26:23.902Z,20.60
2019-05-25T11:28:55.607Z,20.70
2019-05-25T11:31:24.560Z,20.70
2019-05-25T11:33:53.607Z,20.70
2019-05-25T11:36:22.537Z,20.80
2019-05-25T11:38:52.029Z,20.90
2019-05-25T11:41:20.924Z,21.00
2019-05-25T11:43:50.257Z,21.00
2019-05-25T11:46:19.572Z,21.00
2019-05-25T11:48:48.650Z,20.90
2019-05-25T11:51:17.548Z,20.90
2019-05-25T11:53:46.530Z,20.90
2019-05-25T11:56:15.441Z,20.90
2019-05-25T11:58:47.373Z,20.90
2019-05-25T12:01:15.411Z,20.90
2019-05-25T12:03:44.300Z,21.00
2019-05-25T12:06:13.600Z,21.00
2019-05-25T12:08:42.467Z,21.20
2019-05-25T12:11:11.418Z,21.20
2019-05-25T12:13:40.277Z,21.10
2019-05-25T12:16:09.151Z,21.00
2019-05-25T12:18:38.044Z,21.20
2019-05-25T12:21:07.387Z,21.20
2019-05-25T12:23:36.252Z,21.40
2019-05-25T12:26:05.253Z,21.30
2019-05-25T12:28:34.291Z,21.30
2019-05-25T12:31:03.305Z,21.10
2019-05-25T12:33:32.437Z,21.10
2019-05-25T12:36:02.366Z,21.20
2019-05-25T12:38:34.408Z,21.20
2019-05-25T12:41:03.484Z,21.20
2019-05-25T12:43:32.843Z,21.30
2019-05-25T12:46:03.524Z,21.30
2019-05-25T12:48:34.323Z,21.30
2019-05-25T12:51:04.105Z,21.40
2019-05-25T12:56:02.160Z,21.80
2019-05-25T12:58:32.258Z,21.90
2019-05-25T13:01:01.396Z,21.90
2019-05-25T13:03:30.203Z,21.70
2019-05-25T13:06:01.345Z,21.70
2019-05-25T13:08:30.235Z,21.80
2019-05-25T13:10:59.630Z,21.80
2019-05-25T13:13:28.505Z,21.60
2019-05-25T13:15:57.488Z,21.60
2019-05-25T13:18:26.362Z,21.50
2019-05-25T13:20:55.959Z,21.50
2019-05-25T13:23:27.834Z,21.50
2019-05-25T13:25:56.979Z,21.50
2019-05-25T13:28:25.905Z,21.40
2019-05-25T13:31:09.029Z,21.50
2019-05-25T13:35:54.490Z,21.50
2019-05-25T13:38:23.741Z,21.60
2019-05-25T13:40:52.705Z,21.60
2019-05-25T13:43:21.845Z,21.70
2019-05-25T13:45:51.499Z,21.60
2019-05-25T13:48:20.451Z,21.90
2019-05-25T13:50:53.516Z,22.00
2019-05-25T13:53:22.729Z,22.10
2019-05-25T13:55:52.020Z,22.20
2019-05-25T13:58:21.025Z,22.30
2019-05-25T14:00:50.115Z,22.60
2019-05-25T14:03:20.081Z,23.20
2019-05-25T14:05:49.357Z,23.70
2019-05-25T14:08:18.247Z,23.70
2019-05-25T14:10:47.390Z,24.20
2019-05-25T14:13:17.570Z,24.30
2019-05-25T14:15:46.667Z,24.40
2019-05-25T14:18:15.571Z,24.20
2019-05-25T14:20:44.527Z,24.80
2019-05-25T14:23:14.300Z,25.10
2019-05-25T14:25:43.158Z,24.90
2019-05-25T14:28:14.519Z,25.10
2019-05-25T14:30:43.993Z,25.40
2019-05-25T14:33:12.844Z,24.80
2019-05-25T14:35:42.097Z,24.80
2019-05-25T14:38:11.175Z,25.10
2019-05-25T14:40:40.376Z,25.40
2019-05-25T14:43:09.321Z,25.10
2019-05-25T14:45:38.498Z,25.10
2019-05-25T14:48:07.479Z,25.30
2019-05-25T14:50:36.527Z,25.90
2019-05-25T14:53:05.578Z,26.10
2019-05-25T14:55:34.445Z,26.00
2019-05-25T14:58:03.384Z,25.40
2019-05-25T15:00:32.394Z,25.00
2019-05-25T15:03:01.372Z,24.70
2019-05-25T15:05:30.409Z,24.50
2019-05-25T15:07:59.607Z,24.20
2019-05-25T15:10:32.462Z,24.30
2019-05-25T15:13:01.670Z,24.90
2019-05-25T15:15:30.937Z,25.50
2019-05-25T15:18:00.233Z,25.30
2019-05-25T15:20:29.162Z,25.10
2019-05-25T15:22:58.414Z,24.90
2019-05-25T15:25:27.880Z,24.90
2019-05-25T15:27:56.844Z,24.80
2019-05-25T15:30:25.791Z,24.50
2019-05-25T15:32:54.679Z,24.10
2019-05-25T15:35:23.926Z,24.10
2019-05-25T15:37:52.836Z,23.70
2019-05-25T15:40:22.647Z,23.40
2019-05-25T15:42:51.629Z,23.30
2019-05-25T15:45:20.616Z,23.30
2019-05-25T15:47:49.789Z,23.50
2019-05-25T15:50:19.361Z,23.40
2019-05-25T15:52:48.349Z,23.20
2019-05-25T15:55:18.005Z,23.20
2019-05-25T15:57:46.889Z,22.90
2019-05-25T16:00:16.352Z,22.70
2019-05-25T16:02:46.124Z,22.50
2019-05-25T16:05:15.463Z,22.50
2019-05-25T16:07:49.020Z,22.50
2019-05-25T16:10:18.327Z,22.50
2019-05-25T16:12:47.302Z,22.60
2019-05-25T16:15:24.188Z,22.60
2019-05-25T16:17:54.477Z,22.50
2019-05-25T16:20:23.937Z,22.70
2019-05-25T16:22:52.796Z,22.70
2019-05-25T16:25:21.765Z,22.70
2019-05-25T16:27:50.672Z,22.70
2019-05-25T16:30:19.616Z,23.60
2019-05-25T16:35:20.564Z,24.40
2019-05-25T16:37:49.828Z,25.00
2019-05-25T16:40:19.036Z,25.20
2019-05-25T16:42:47.983Z,24.90
2019-05-25T16:45:17.410Z,24.90
2019-05-25T16:47:46.306Z,25.00
2019-05-25T16:50:15.686Z,25.30
2019-05-25T16:52:44.578Z,25.70
2019-05-25T16:55:13.525Z,25.80
2019-05-25T16:57:43.940Z,25.90
2019-05-25T17:00:14.844Z,26.20
2019-05-25T17:02:44.752Z,26.10
2019-05-25T17:05:14.783Z,25.90
2019-05-25T17:07:43.799Z,25.90
2019-05-25T17:10:12.803Z,25.70
2019-05-25T17:12:42.041Z,26.10
2019-05-25T17:15:11.471Z,26.10
2019-05-25T17:17:40.429Z,26.30
2019-05-25T17:20:09.733Z,26.80
2019-05-25T17:22:38.796Z,26.90
2019-05-25T17:25:08.817Z,26.90
2019-05-25T17:27:37.832Z,26.80
2019-05-25T17:30:08.105Z,26.70
2019-05-25T17:32:37.531Z,26.80
2019-05-25T17:35:07.247Z,27.00
2019-05-25T17:37:37.369Z,27.10
2019-05-25T17:40:07.634Z,27.20
2019-05-25T17:42:36.881Z,27.30
2019-05-25T17:45:06.195Z,27.30
2019-05-25T17:47:35.470Z,26.90
2019-05-25T17:50:05.063Z,26.70
2019-05-25T17:52:34.621Z,25.10
2019-05-25T17:55:03.831Z,25.00
2019-05-25T17:57:33.077Z,24.60
2019-05-25T18:00:02.275Z,24.20
2019-05-25T18:05:00.173Z,23.10
2019-05-25T18:07:29.752Z,22.40
2019-05-25T18:09:58.918Z,21.90
2019-05-25T18:12:29.780Z,21.70
2019-05-25T18:14:58.465Z,21.60
2019-05-25T18:17:27.375Z,21.60
2019-05-25T18:19:56.428Z,21.50
2019-05-25T18:22:25.318Z,21.30
2019-05-25T18:24:54.211Z,21.00
2019-05-25T18:27:23.088Z,21.00
2019-05-25T18:29:52.387Z,21.00
2019-05-25T18:32:21.352Z,20.70
2019-05-25T18:34:50.283Z,20.60
2019-05-25T18:37:19.889Z,20.30
2019-05-25T18:39:48.730Z,20.00
2019-05-25T18:42:18.482Z,20.00
2019-05-25T18:44:47.897Z,19.70
2019-05-25T18:47:16.727Z,19.60
2019-05-25T18:49:45.615Z,19.50
2019-05-25T18:52:14.561Z,19.40
2019-05-25T18:54:43.400Z,19.20
2019-05-25T18:57:12.629Z,19.20
2019-05-25T18:59:41.537Z,19.10
2019-05-25T19:02:10.668Z,19.00
2019-05-25T19:04:47.548Z,18.90
2019-05-25T19:07:10.387Z,18.80
2019-05-25T19:09:39.513Z,18.70
2019-05-25T19:12:08.770Z,18.70
2019-05-25T19:14:37.634Z,18.60
2019-05-25T19:17:06.844Z,18.50
2019-05-25T19:19:35.681Z,18.40
2019-05-25T19:22:05.458Z,18.30
2019-05-25T19:24:34.742Z,18.20
2019-05-25T19:27:04.015Z,18.20
2019-05-25T19:29:32.990Z,18.00
2019-05-25T19:32:02.212Z,18.00
2019-05-25T19:34:31.074Z,17.90
2019-05-25T19:37:03.657Z,17.90
2019-05-25T19:39:30.562Z,17.80
2019-05-25T19:42:00.061Z,17.80
2019-05-25T19:44:28.984Z,17.70
2019-05-25T19:46:57.797Z,17.70
2019-05-25T19:49:26.814Z,17.70
2019-05-25T19:51:56.380Z,17.60
2019-05-25T19:54:25.282Z,17.60
2019-05-25T19:56:54.731Z,17.60
2019-05-25T19:59:23.881Z,17.50
2019-05-25T20:01:53.259Z,17.50
2019-05-25T20:04:22.083Z,17.50
2019-05-25T20:06:51.068Z,17.50
2019-05-25T20:09:20.030Z,17.50
2019-05-25T20:11:48.910Z,17.50
2019-05-25T20:14:17.745Z,17.50
2019-05-25T20:16:46.569Z,17.50
2019-05-25T20:19:15.523Z,17.40
2019-05-25T20:21:44.669Z,17.40
2019-05-25T20:24:14.275Z,17.40
2019-05-25T20:26:43.201Z,17.40
2019-05-25T20:29:12.140Z,17.30
2019-05-25T20:31:41.130Z,17.30
2019-05-25T20:34:09.980Z,17.30
2019-05-25T20:36:38.999Z,17.30
2019-05-25T20:39:08.099Z,17.20
2019-05-25T20:41:37.344Z,17.20
2019-05-25T20:44:06.186Z,17.20
2019-05-25T20:46:35.121Z,17.20
2019-05-25T20:49:04.233Z,17.10
2019-05-25T20:51:33.197Z,17.10
2019-05-25T20:54:02.442Z,17.00
2019-05-25T20:56:31.367Z,17.00
2019-05-25T20:59:00.946Z,17.00
2019-05-25T21:01:29.936Z,17.00
2019-05-25T21:03:58.839Z,16.90
2019-05-25T21:06:27.719Z,16.90
2019-05-25T21:08:56.709Z,16.90
2019-05-25T21:11:25.651Z,16.80
2019-05-25T21:13:54.554Z,16.80
2019-05-25T21:16:23.511Z,16.70
2019-05-25T21:18:52.399Z,16.70
2019-05-25T21:21:21.215Z,16.70
2019-05-25T21:23:50.444Z,16.60
2019-05-25T21:26:19.755Z,16.60
2019-05-25T21:28:48.932Z,16.60
2019-05-25T21:31:18.148Z,16.60
2019-05-25T21:33:47.454Z,16.50
2019-05-25T21:36:24.113Z,16.40
2019-05-25T21:38:53.115Z,16.50
2019-05-25T21:41:22.269Z,16.40
2019-05-25T21:43:51.401Z,16.40
2019-05-25T21:46:20.262Z,16.40
2019-05-25T21:48:49.274Z,16.30
2019-05-25T21:51:18.488Z,16.20
2019-05-25T21:53:47.381Z,16.20
2019-05-25T21:56:16.353Z,16.20
2019-05-25T21:58:45.278Z,16.10
2019-05-25T22:01:14.953Z,16.00
2019-05-25T22:03:43.762Z,15.90
2019-05-25T22:06:23.764Z,15.90
2019-05-25T22:08:43.902Z,15.80
2019-05-25T22:11:13.236Z,15.80
2019-05-25T22:13:42.136Z,15.80
2019-05-25T22:16:11.214Z,15.70
2019-05-25T22:18:40.155Z,15.70
2019-05-25T22:21:09.461Z,15.70
2019-05-25T22:23:38.740Z,15.70
2019-05-25T22:26:07.624Z,15.70
2019-05-25T22:28:44.754Z,15.70
2019-05-25T22:31:07.247Z,15.50
2019-05-25T22:33:36.512Z,15.60
2019-05-25T22:36:05.511Z,15.60
2019-05-25T22:38:34.556Z,15.50
2019-05-25T22:41:03.527Z,15.50
2019-05-25T22:43:32.310Z,15.40
2019-05-25T22:46:01.581Z,15.40
2019-05-25T22:48:30.459Z,15.40
2019-05-25T22:50:59.365Z,15.40
2019-05-25T22:53:28.244Z,15.40
2019-05-25T22:55:57.348Z,15.40
2019-05-25T22:58:26.320Z,15.40
2019-05-25T23:00:55.543Z,15.40
2019-05-25T23:03:24.425Z,15.40
2019-05-25T23:05:53.222Z,15.40
2019-05-25T23:08:22.307Z,15.30
2019-05-25T23:10:51.719Z,15.30
2019-05-25T23:13:20.648Z,15.20
2019-05-25T23:15:49.439Z,15.20
2019-05-25T23:18:18.512Z,15.20
2019-05-25T23:20:47.621Z,15.10
2019-05-25T23:23:16.608Z,15.10
2019-05-25T23:25:45.463Z,15.10
2019-05-25T23:28:14.669Z,15.10
2019-05-25T23:30:43.778Z,15.10
2019-05-25T23:33:13.048Z,15.00
2019-05-25T23:35:42.163Z,15.00
2019-05-25T23:38:10.954Z,14.90
2019-05-25T23:40:39.841Z,14.90
2019-05-25T23:43:08.685Z,14.90
2019-05-25T23:45:37.936Z,14.90
2019-05-25T23:48:06.768Z,14.90
2019-05-25T23:50:35.776Z,14.80
2019-05-25T23:53:04.731Z,14.80
2019-05-25T23:55:33.812Z,14.80
2019-05-25T23:58:02.800Z,14.80
